Time;durP1;ratioP1;P1;durP2;ratioP2;P2;SDS_P1;SDS_P2;PMS_P1;PMS_P2;Temp;Humidity;BMP_temperature;BMP_pressure;BME280_temperature;BME280_humidity;BME280_pressure;Samples;Min_cycle;Max_cycle;Signal;HPM_P1;HPM_P2
2021/12/14 00:02:27;;;;;;;43.05;25.58;;;;;;;;;;4937894;29;20031;-71
2021/12/14 00:04:53;;;;;;;44.20;24.92;;;;;;;;;;4938940;28;20110;-71
2021/12/14 00:07:20;;;;;;;45.60;26.15;;;;;;;;;;4940123;28;20486;-71
2021/12/14 00:09:46;;;;;;;43.90;25.42;;;;;;;;;;4937758;29;20078;-69
2021/12/14 00:15:23;;;;;;;46.75;26.88;;;;;;;;;;4934995;29;20126;-71
2021/12/14 00:17:51;;;;;;;47.10;26.85;;;;;;;;;;4933660;29;20107;-70
2021/12/14 00:20:23;;;;;;;51.33;28.58;;;;;;;;;;4936966;29;20118;-70
2021/12/14 00:25:29;;;;;;;47.63;26.83;;;;;;;;;;4938253;29;20028;-70
2021/12/14 00:27:56;;;;;;;49.90;27.48;;;;;;;;;;4937573;29;20047;-72
2021/12/14 00:30:22;;;;;;;49.42;28.33;;;;;;;;;;4937941;29;20034;-70
2021/12/14 00:32:48;;;;;;;49.00;28.77;;;;;;;;;;4952389;28;20038;-71
2021/12/14 00:35:14;;;;;;;49.65;26.52;;;;;;;;;;4934082;28;20660;-69
2021/12/14 00:37:43;;;;;;;49.28;28.73;;;;;;;;;;4954401;28;20031;-70
2021/12/14 00:40:12;;;;;;;49.10;28.40;;;;;;;;;;4937939;29;20481;-72
2021/12/14 00:42:38;;;;;;;52.47;29.20;;;;;;;;;;4952460;28;20401;-69
2021/12/14 00:45:05;;;;;;;53.40;29.33;;;;;;;;;;4949593;28;20058;-72
2021/12/14 00:47:31;;;;;;;49.13;28.05;;;;;;;;;;4941410;29;20107;-69
2021/12/14 00:49:57;;;;;;;46.33;28.25;;;;;;;;;;4935221;29;20031;-71
2021/12/14 00:52:23;;;;;;;49.45;29.20;;;;;;;;;;4939305;28;20653;-70
2021/12/14 00:54:50;;;;;;;49.72;30.08;;;;;;;;;;4936341;28;20048;-69
2021/12/14 00:57:17;;;;;;;49.00;28.58;;;;;;;;;;4939308;28;20094;-71
2021/12/14 00:59:43;;;;;;;47.90;29.77;;;;;;;;;;4939040;28;20023;-70
2021/12/14 01:02:16;;;;;;;46.17;28.42;;;;;;;;;;4936986;28;20118;-69
2021/12/14 01:04:44;;;;;;;52.83;30.33;;;;;;;;;;4934820;28;20030;-70
2021/12/14 01:07:11;;;;;;;47.10;29.17;;;;;;;;;;4951544;28;20515;-70
2021/12/14 01:09:40;;;;;;;47.88;29.13;;;;;;;;;;4938031;28;20062;-70
2021/12/14 01:12:11;;;;;;;50.75;29.92;;;;;;;;;;4938499;28;20050;-69
2021/12/14 01:14:45;;;;;;;;;;;;;;;;;;4935394;29;20039;-68
2021/12/14 01:17:25;;;;;;;44.53;28.80;;;;;;;;;;4939188;29;20093;-71
2021/12/14 01:19:58;;;;;;;56.43;31.83;;;;;;;;;;4932044;28;20031;-70
2021/12/14 01:22:45;;;;;;;53.22;30.15;;;;;;;;;;4937551;28;20039;-69
2021/12/14 01:25:14;;;;;;;50.63;31.48;;;;;;;;;;4937277;29;20023;-72
2021/12/14 01:27:46;;;;;;;53.67;32.13;;;;;;;;;;4945218;28;20053;-71
2021/12/14 01:30:19;;;;;;;55.75;31.48;;;;;;;;;;4936001;28;20169;-71
2021/12/14 01:32:47;;;;;;;54.15;31.50;;;;;;;;;;4949922;28;20496;-70
2021/12/14 01:35:15;;;;;;;53.05;31.70;;;;;;;;;;4969568;28;20042;-69
2021/12/14 01:37:47;;;;;;;51.08;32.20;;;;;;;;;;4937437;29;20041;-70
2021/12/14 01:40:29;;;;;;;52.95;32.45;;;;;;;;;;4940890;28;20057;-70
2021/12/14 01:42:56;;;;;;;54.13;33.50;;;;;;;;;;4954521;28;20035;-75
2021/12/14 01:45:23;;;;;;;50.05;31.95;;;;;;;;;;4947721;28;20042;-70
2021/12/14 01:47:52;;;;;;;52.13;32.20;;;;;;;;;;4934783;29;20138;-70
2021/12/14 01:50:21;;;;;;;56.20;35.47;;;;;;;;;;4953628;28;20465;-70
2021/12/14 01:52:47;;;;;;;54.60;33.15;;;;;;;;;;4937339;29;20047;-71
2021/12/14 01:55:16;;;;;;;58.65;35.90;;;;;;;;;;4952427;28;20105;-70
2021/12/14 01:57:43;;;;;;;72.57;35.38;;;;;;;;;;4938848;29;20042;-70
2021/12/14 02:00:12;;;;;;;56.25;34.83;;;;;;;;;;4937590;28;20110;-69
2021/12/14 02:02:42;;;;;;;58.88;36.53;;;;;;;;;;4935618;28;20566;-69
2021/12/14 02:05:28;;;;;;;60.83;36.10;;;;;;;;;;4938285;29;20505;-70
2021/12/14 02:07:56;;;;;;;59.05;34.88;;;;;;;;;;4937451;28;20501;-69
2021/12/14 02:10:30;;;;;;;57.88;36.70;;;;;;;;;;4939017;29;20063;-69
2021/12/14 02:12:58;;;;;;;61.60;38.10;;;;;;;;;;4965631;28;20083;-71
2021/12/14 02:15:32;;;;;;;62.60;38.10;;;;;;;;;;4942081;28;20028;-71
2021/12/14 02:18:00;;;;;;;62.35;37.88;;;;;;;;;;4943616;28;20036;-70
2021/12/14 02:20:28;;;;;;;63.15;39.00;;;;;;;;;;4972755;28;20470;-72
2021/12/14 02:22:55;;;;;;;68.65;38.17;;;;;;;;;;4940951;29;20059;-71
2021/12/14 02:25:21;;;;;;;63.40;38.65;;;;;;;;;;4939471;29;20083;-71
2021/12/14 02:27:50;;;;;;;63.63;39.15;;;;;;;;;;4957179;28;20031;-69
2021/12/14 02:30:20;;;;;;;64.07;38.05;;;;;;;;;;4939751;28;20489;-70
2021/12/14 02:32:46;;;;;;;66.45;38.80;;;;;;;;;;4939079;29;20110;-71
2021/12/14 02:35:14;;;;;;;68.63;41.45;;;;;;;;;;4937473;28;20036;-71
2021/12/14 02:37:43;;;;;;;64.07;38.85;;;;;;;;;;4937415;28;20030;-71
2021/12/14 02:40:20;;;;;;;70.47;40.17;;;;;;;;;;4935271;29;20028;-72
2021/12/14 02:42:50;;;;;;;70.15;40.65;;;;;;;;;;4939314;28;20593;-70
2021/12/14 02:45:19;;;;;;;70.50;41.60;;;;;;;;;;4940812;28;20042;-71
2021/12/14 02:47:45;;;;;;;70.15;40.33;;;;;;;;;;4937452;29;20511;-70
2021/12/14 02:50:12;;;;;;;68.38;39.50;;;;;;;;;;4940640;29;20046;-70
2021/12/14 02:52:38;;;;;;;66.25;40.72;;;;;;;;;;4939174;29;20110;-69
2021/12/14 02:55:07;;;;;;;64.22;39.65;;;;;;;;;;4941779;28;20035;-70
2021/12/14 02:57:35;;;;;;;69.13;41.90;;;;;;;;;;4940339;28;20046;-70
2021/12/14 03:00:02;;;;;;;69.43;40.33;;;;;;;;;;4938061;28;20027;-70
2021/12/14 03:02:30;;;;;;;69.13;40.33;;;;;;;;;;4934311;28;20028;-69
2021/12/14 03:05:00;;;;;;;70.60;41.72;;;;;;;;;;4949041;28;20477;-69
2021/12/14 03:07:28;;;;;;;70.53;42.15;;;;;;;;;;4938758;28;20065;-69
2021/12/14 03:10:06;;;;;;;70.15;41.20;;;;;;;;;;4936616;29;20116;-70
2021/12/14 03:12:43;;;;;;;71.93;42.28;;;;;;;;;;4937965;28;20378;-69
2021/12/14 03:15:09;;;;;;;73.20;42.15;;;;;;;;;;4933522;28;20036;-71
2021/12/14 03:17:35;;;;;;;69.60;42.78;;;;;;;;;;4948695;28;20043;-71
2021/12/14 03:20:07;;;;;;;74.03;43.30;;;;;;;;;;4970205;28;20382;-71
2021/12/14 03:22:40;;;;;;;70.93;42.83;;;;;;;;;;4936415;29;20118;-69
2021/12/14 03:25:07;;;;;;;74.32;43.25;;;;;;;;;;4955061;28;20037;-70
2021/12/14 03:27:37;;;;;;;68.15;41.60;;;;;;;;;;4939643;28;20038;-69
2021/12/14 03:30:06;;;;;;;67.43;42.28;;;;;;;;;;4938275;28;20434;-70
2021/12/14 03:32:34;;;;;;;73.35;43.85;;;;;;;;;;4936632;28;20039;-72
2021/12/14 03:35:00;;;;;;;72.20;42.97;;;;;;;;;;4932700;29;20028;-69
2021/12/14 03:37:26;;;;;;;72.68;42.50;;;;;;;;;;4954790;28;20103;-70
2021/12/14 03:39:58;;;;;;;71.80;42.15;;;;;;;;;;4954441;28;20031;-70
2021/12/14 03:42:36;;;;;;;76.03;42.33;;;;;;;;;;4936792;29;20047;-71
2021/12/14 03:45:03;;;;;;;71.65;41.75;;;;;;;;;;4935205;29;20023;-71
2021/12/14 03:47:31;;;;;;;71.82;42.92;;;;;;;;;;4936436;28;20051;-69
2021/12/14 03:49:59;;;;;;;73.57;42.10;;;;;;;;;;4954524;28;20027;-69
2021/12/14 03:52:30;;;;;;;69.28;42.50;;;;;;;;;;4938626;29;20036;-69
2021/12/14 03:54:56;;;;;;;;;;;;;;;;;;4937210;29;20038;-69
2021/12/14 03:57:22;;;;;;;73.13;42.17;;;;;;;;;;4939311;28;19914;-69
2021/12/14 03:59:48;;;;;;;72.88;41.45;;;;;;;;;;4941093;28;20048;-69
2021/12/14 04:02:18;;;;;;;76.03;41.95;;;;;;;;;;4951785;28;20056;-69
2021/12/14 04:05:11;;;;;;;72.32;42.33;;;;;;;;;;4936240;29;20432;-69
2021/12/14 04:07:38;;;;;;;68.45;39.15;;;;;;;;;;4938682;28;20344;-70
2021/12/14 04:10:09;;;;;;;66.88;38.75;;;;;;;;;;4940192;29;20031;-70
2021/12/14 04:12:35;;;;;;;64.28;37.30;;;;;;;;;;4937241;28;20055;-70
2021/12/14 04:15:02;;;;;;;62.30;38.35;;;;;;;;;;4932734;28;20489;-69
2021/12/14 04:17:29;;;;;;;68.28;39.10;;;;;;;;;;4966795;28;20545;-68
2021/12/14 04:19:55;;;;;;;61.50;37.80;;;;;;;;;;4935185;28;20090;-69
2021/12/14 04:22:24;;;;;;;65.65;38.92;;;;;;;;;;4934888;28;20046;-70
2021/12/14 04:24:52;;;;;;;68.82;37.70;;;;;;;;;;4941730;28;20067;-70
2021/12/14 04:27:20;;;;;;;62.65;37.47;;;;;;;;;;4935511;29;20504;-70
2021/12/14 04:29:46;;;;;;;62.83;37.85;;;;;;;;;;4937614;28;20031;-70
2021/12/14 04:32:13;;;;;;;64.47;37.35;;;;;;;;;;4938127;28;20481;-70
2021/12/14 04:34:40;;;;;;;60.35;36.85;;;;;;;;;;4936395;28;20581;-70
2021/12/14 04:37:07;;;;;;;64.40;36.67;;;;;;;;;;4935792;29;20032;-71
2021/12/14 04:39:43;;;;;;;63.42;37.67;;;;;;;;;;4968849;28;20024;-69
2021/12/14 04:53:58;;;;;;;60.15;35.00;;;;;;;;;;4935415;29;20125;-69
2021/12/14 04:56:27;;;;;;;60.67;34.90;;;;;;;;;;4934688;28;20340;-70
2021/12/14 04:59:23;;;;;;;56.05;32.88;;;;;;;;;;4952342;28;20056;-70
2021/12/14 05:01:50;;;;;;;55.30;34.00;;;;;;;;;;4929313;29;20485;-70
2021/12/14 05:04:18;;;;;;;54.75;33.45;;;;;;;;;;4934039;28;20102;-70
2021/12/14 05:06:50;;;;;;;57.30;33.28;;;;;;;;;;4936215;29;21657;-70
2021/12/14 05:09:23;;;;;;;55.92;33.22;;;;;;;;;;4935313;28;20046;-70
2021/12/14 05:11:50;;;;;;;58.78;34.03;;;;;;;;;;4936653;29;20036;-70
2021/12/14 05:14:17;;;;;;;52.03;32.60;;;;;;;;;;4938427;28;20038;-69
2021/12/14 05:16:43;;;;;;;51.23;30.53;;;;;;;;;;4936067;28;20095;-69
2021/12/14 05:19:11;;;;;;;49.95;31.63;;;;;;;;;;4937662;28;20140;-71
2021/12/14 05:21:40;;;;;;;54.55;32.47;;;;;;;;;;4937938;29;20109;-70
2021/12/14 05:24:08;;;;;;;50.58;31.63;;;;;;;;;;4966289;28;20043;-71
2021/12/14 05:26:35;;;;;;;52.20;31.58;;;;;;;;;;4934671;29;20050;-71
2021/12/14 05:29:02;;;;;;;49.30;30.42;;;;;;;;;;4938773;29;20027;-71
2021/12/14 05:31:29;;;;;;;49.70;28.83;;;;;;;;;;4929314;29;20048;-71
2021/12/14 05:33:55;;;;;;;50.50;30.77;;;;;;;;;;4940499;29;20098;-72
2021/12/14 05:36:22;;;;;;;53.85;31.15;;;;;;;;;;4939598;28;20437;-71
2021/12/14 05:39:01;;;;;;;48.05;29.02;;;;;;;;;;4937796;28;20142;-70
2021/12/14 05:44:19;;;;;;;50.50;30.88;;;;;;;;;;4939631;29;20552;-70
2021/12/14 05:46:50;;;;;;;48.67;30.33;;;;;;;;;;4935970;29;20102;-70
2021/12/14 05:49:17;;;;;;;45.65;29.33;;;;;;;;;;4942741;28;21356;-70
2021/12/14 05:51:43;;;;;;;47.83;29.90;;;;;;;;;;4942882;29;20028;-71
2021/12/14 05:54:09;;;;;;;49.35;30.02;;;;;;;;;;4938402;29;20032;-68
2021/12/14 05:56:36;;;;;;;47.00;29.20;;;;;;;;;;4941279;28;20709;-69
2021/12/14 05:59:04;;;;;;;43.38;27.75;;;;;;;;;;4976745;28;20053;-70
2021/12/14 06:01:31;;;;;;;45.42;27.95;;;;;;;;;;4937057;28;20514;-71
2021/12/14 06:03:59;;;;;;;44.70;28.63;;;;;;;;;;4941880;28;20087;-71
2021/12/14 06:06:29;;;;;;;44.28;28.38;;;;;;;;;;4943540;28;20376;-72
2021/12/14 06:09:10;;;;;;;43.17;27.15;;;;;;;;;;4951466;28;20453;-69
2021/12/14 06:11:37;;;;;;;41.30;26.60;;;;;;;;;;4940354;28;20047;-70
2021/12/14 06:14:04;;;;;;;40.88;26.70;;;;;;;;;;4952543;28;20067;-71
2021/12/14 06:16:35;;;;;;;46.10;27.65;;;;;;;;;;4940809;29;20035;-70
2021/12/14 06:19:30;;;;;;;44.03;27.73;;;;;;;;;;4953396;28;20046;-69
2021/12/14 06:22:06;;;;;;;41.72;27.15;;;;;;;;;;4925379;29;20085;-70
2021/12/14 06:24:34;;;;;;;40.88;26.63;;;;;;;;;;4958332;28;20488;-71
2021/12/14 06:27:02;;;;;;;45.28;26.38;;;;;;;;;;4943273;28;20485;-70
2021/12/14 06:29:34;;;;;;;44.15;26.10;;;;;;;;;;4952816;28;20106;-71
2021/12/14 06:32:11;;;;;;;45.35;27.17;;;;;;;;;;4936813;29;20035;-71
2021/12/14 06:34:42;;;;;;;46.50;27.63;;;;;;;;;;4941110;28;20843;-69
2021/12/14 06:40:01;;;;;;;40.97;26.17;;;;;;;;;;4944271;29;20024;-71
2021/12/14 06:42:27;;;;;;;;;;;;;;;;;;4940461;28;20050;-69
2021/12/14 06:45:03;;;;;;;42.75;24.80;;;;;;;;;;4969326;28;19910;-70
2021/12/14 06:47:30;;;;;;;46.90;27.73;;;;;;;;;;4942405;28;20106;-70
2021/12/14 06:49:59;;;;;;;45.25;27.20;;;;;;;;;;4940774;28;20038;-70
2021/12/14 06:52:25;;;;;;;47.60;28.15;;;;;;;;;;4940126;28;20031;-70
2021/12/14 06:54:51;;;;;;;47.20;27.33;;;;;;;;;;4973616;28;20031;-70
2021/12/14 06:57:17;;;;;;;46.45;27.88;;;;;;;;;;4936517;28;20027;-69
2021/12/14 06:59:43;;;;;;;47.08;28.20;;;;;;;;;;4941868;28;20544;-70
2021/12/14 07:02:10;;;;;;;44.95;27.40;;;;;;;;;;4938153;29;20027;-71
2021/12/14 07:04:40;;;;;;;49.80;27.75;;;;;;;;;;4941890;28;20023;-71
2021/12/14 07:07:08;;;;;;;46.17;29.13;;;;;;;;;;4958480;28;20585;-69
2021/12/14 07:09:37;;;;;;;48.83;27.92;;;;;;;;;;4939848;29;20341;-71
2021/12/14 07:12:06;;;;;;;49.58;27.98;;;;;;;;;;4940870;28;20207;-71
2021/12/14 07:14:32;;;;;;;46.17;27.55;;;;;;;;;;4938270;28;20035;-68
2021/12/14 07:17:01;;;;;;;47.20;28.48;;;;;;;;;;4977116;28;20396;-69
2021/12/14 07:19:40;;;;;;;51.70;29.83;;;;;;;;;;4960072;28;20138;-70
2021/12/14 07:22:06;;;;;;;45.80;28.58;;;;;;;;;;4944934;29;20741;-70
2021/12/14 07:24:35;;;;;;;49.47;29.95;;;;;;;;;;4947480;29;20098;-70
2021/12/14 07:27:22;;;;;;;48.72;27.27;;;;;;;;;;4946400;28;20098;-70
2021/12/14 07:29:48;;;;;;;48.75;29.05;;;;;;;;;;4948590;28;20036;-70
2021/12/14 07:32:14;;;;;;;53.60;30.65;;;;;;;;;;4948380;29;20098;-70
2021/12/14 07:34:40;;;;;;;52.05;28.58;;;;;;;;;;4961353;28;20086;-70
2021/12/14 07:37:06;;;;;;;49.47;29.10;;;;;;;;;;4961391;28;20039;-69
2021/12/14 07:39:33;;;;;;;53.75;30.23;;;;;;;;;;4945934;29;20437;-70
2021/12/14 07:42:00;;;;;;;47.92;29.55;;;;;;;;;;4940388;28;20374;-69
2021/12/14 07:44:33;;;;;;;51.88;31.20;;;;;;;;;;4958382;28;20427;-69
2021/12/14 07:47:05;;;;;;;52.67;30.75;;;;;;;;;;4943566;28;20093;-70
2021/12/14 07:49:34;;;;;;;50.03;30.38;;;;;;;;;;4947762;28;20493;-70
2021/12/14 07:52:10;;;;;;;54.10;32.05;;;;;;;;;;4942872;28;20090;-70
2021/12/14 07:54:41;;;;;;;54.20;32.20;;;;;;;;;;4950618;28;20038;-70
2021/12/14 07:57:09;;;;;;;52.53;30.92;;;;;;;;;;4939780;29;20044;-69
2021/12/14 07:59:41;;;;;;;56.78;31.95;;;;;;;;;;4947619;28;20555;-70
2021/12/14 08:02:07;;;;;;;57.42;31.98;;;;;;;;;;4971471;28;20197;-71
2021/12/14 08:04:35;;;;;;;51.90;30.92;;;;;;;;;;4955488;28;20032;-70
2021/12/14 08:07:01;;;;;;;56.28;32.38;;;;;;;;;;4955240;28;20126;-70
2021/12/14 08:09:44;;;;;;;51.95;31.02;;;;;;;;;;4942310;28;20023;-70
2021/12/14 08:12:10;;;;;;;54.42;32.85;;;;;;;;;;4956957;28;20110;-70
2021/12/14 08:14:36;;;;;;;52.72;30.30;;;;;;;;;;4960742;28;20031;-70
2021/12/14 08:17:09;;;;;;;53.15;31.67;;;;;;;;;;4947580;29;20519;-69
2021/12/14 08:19:35;;;;;;;56.25;33.05;;;;;;;;;;4941156;29;20076;-69
2021/12/14 08:22:05;;;;;;;52.47;32.80;;;;;;;;;;4947162;28;20027;-71
2021/12/14 08:24:31;;;;;;;52.70;31.33;;;;;;;;;;4944057;28;20114;-69
2021/12/14 08:26:59;;;;;;;53.08;31.38;;;;;;;;;;4943499;28;20036;-69
2021/12/14 08:29:27;;;;;;;54.33;32.70;;;;;;;;;;4947028;29;20516;-69
2021/12/14 08:32:09;;;;;;;55.28;32.33;;;;;;;;;;4943995;28;20102;-69
2021/12/14 08:34:46;;;;;;;52.78;32.17;;;;;;;;;;5077151;27;1277711;-71
2021/12/14 08:37:14;;;;;;;52.53;31.80;;;;;;;;;;5092059;28;20097;-71
2021/12/14 08:39:41;;;;;;;54.28;32.10;;;;;;;;;;5099831;28;20070;-71
2021/12/14 08:42:14;;;;;;;55.45;32.40;;;;;;;;;;5099027;28;20039;-70
2021/12/14 08:44:49;;;;;;;59.38;31.17;;;;;;;;;;5081973;28;20493;-69
2021/12/14 08:47:20;;;;;;;51.95;31.60;;;;;;;;;;5097870;28;20032;-69
2021/12/14 08:49:46;;;;;;;53.50;32.45;;;;;;;;;;5101144;28;20027;-69
2021/12/14 08:52:12;;;;;;;51.55;30.13;;;;;;;;;;5078752;28;20027;-69
2021/12/14 08:54:39;;;;;;;53.33;30.63;;;;;;;;;;5081148;28;20352;-69
2021/12/14 08:57:08;;;;;;;54.33;31.65;;;;;;;;;;5058101;28;20397;-70
2021/12/14 08:59:35;;;;;;;55.63;31.83;;;;;;;;;;5076307;28;20424;-70
2021/12/14 09:02:03;;;;;;;52.40;30.58;;;;;;;;;;5081957;28;20122;-70
2021/12/14 09:04:32;;;;;;;60.83;32.13;;;;;;;;;;5096226;28;20111;-71
2021/12/14 09:07:02;;;;;;;57.90;33.72;;;;;;;;;;5093890;28;20476;-71
2021/12/14 09:09:28;;;;;;;59.17;34.35;;;;;;;;;;5094070;28;20377;-71
2021/12/14 09:12:02;;;;;;;60.75;35.03;;;;;;;;;;5096804;28;20036;-70
2021/12/14 09:14:28;;;;;;;63.05;34.72;;;;;;;;;;5090288;28;20079;-70
2021/12/14 09:16:57;;;;;;;64.65;34.30;;;;;;;;;;5080087;28;20130;-70
2021/12/14 09:19:35;;;;;;;68.13;35.42;;;;;;;;;;5093563;28;20016;-70
2021/12/14 09:22:03;;;;;;;70.72;36.22;;;;;;;;;;5088081;28;20089;-70
2021/12/14 09:24:30;;;;;;;73.07;36.60;;;;;;;;;;5092413;28;20468;-69
2021/12/14 09:26:59;;;;;;;72.13;37.22;;;;;;;;;;5093051;28;20172;-72
2021/12/14 09:29:27;;;;;;;78.35;39.17;;;;;;;;;;5069814;28;20085;-70
2021/12/14 09:31:54;;;;;;;85.72;39.90;;;;;;;;;;5096367;28;20036;-71
2021/12/14 09:34:21;;;;;;;85.32;40.60;;;;;;;;;;5088654;28;20515;-71
2021/12/14 09:36:50;;;;;;;87.75;40.55;;;;;;;;;;5092337;28;20028;-70
2021/12/14 09:39:18;;;;;;;88.60;40.75;;;;;;;;;;5092675;28;20024;-70
2021/12/14 09:41:46;;;;;;;95.78;43.75;;;;;;;;;;5097322;28;20020;-70
2021/12/14 09:44:13;;;;;;;96.45;43.95;;;;;;;;;;5072305;28;20391;-70
2021/12/14 09:46:40;;;;;;;96.05;43.95;;;;;;;;;;5076197;28;20028;-70
2021/12/14 09:49:09;;;;;;;94.30;44.22;;;;;;;;;;5078630;28;20087;-71
2021/12/14 09:51:42;;;;;;;103.57;44.88;;;;;;;;;;5064655;28;20108;-70
2021/12/14 09:54:11;;;;;;;103.40;43.97;;;;;;;;;;5080423;28;20093;-70
2021/12/14 09:56:42;;;;;;;101.00;46.20;;;;;;;;;;5083195;28;20024;-70
2021/12/14 09:59:09;;;;;;;103.18;47.78;;;;;;;;;;5057935;28;20016;-70
2021/12/14 10:01:44;;;;;;;101.32;44.88;;;;;;;;;;5063066;28;20032;-71
2021/12/14 10:04:13;;;;;;;100.32;46.65;;;;;;;;;;5088281;28;20036;-71
2021/12/14 10:06:39;;;;;;;102.47;45.85;;;;;;;;;;5084833;28;20024;-71
2021/12/14 10:09:10;;;;;;;105.57;47.75;;;;;;;;;;5078983;28;20032;-70
2021/12/14 10:11:48;;;;;;;101.53;45.83;;;;;;;;;;5080498;28;20024;-70
2021/12/14 10:14:16;;;;;;;96.60;43.65;;;;;;;;;;5085739;28;20046;-70
2021/12/14 10:16:42;;;;;;;89.90;43.35;;;;;;;;;;5058723;28;20028;-70
2021/12/14 10:19:12;;;;;;;88.32;43.97;;;;;;;;;;5060809;28;20047;-69
2021/12/14 10:21:40;;;;;;;93.70;44.15;;;;;;;;;;5085968;28;20096;-70
2021/12/14 10:24:08;;;;;;;90.03;43.42;;;;;;;;;;5080985;28;20031;-70
2021/12/14 10:26:36;;;;;;;96.47;43.08;;;;;;;;;;5062276;28;20028;-70
2021/12/14 10:29:03;;;;;;;99.32;45.10;;;;;;;;;;5060320;28;20469;-69
2021/12/14 10:31:37;;;;;;;88.80;43.22;;;;;;;;;;5078522;28;20317;-69
2021/12/14 10:34:05;;;;;;;93.13;45.08;;;;;;;;;;5064431;28;20041;-69
2021/12/14 10:36:38;;;;;;;93.70;44.85;;;;;;;;;;5055253;28;20032;-70
2021/12/14 10:39:20;;;;;;;95.30;46.30;;;;;;;;;;5086050;28;20468;-70
2021/12/14 10:44:37;;;;;;;97.25;46.28;;;;;;;;;;5082286;28;20502;-70
2021/12/14 10:47:04;;;;;;;91.40;45.58;;;;;;;;;;5079007;28;20021;-70
2021/12/14 10:49:30;;;;;;;98.85;46.65;;;;;;;;;;5075162;28;20103;-70
2021/12/14 10:51:58;;;;;;;98.70;47.90;;;;;;;;;;5075728;28;20070;-69
2021/12/14 10:54:24;;;;;;;98.20;47.38;;;;;;;;;;5059149;28;20118;-69
2021/12/14 10:56:55;;;;;;;100.65;45.50;;;;;;;;;;5076945;28;20027;-70
2021/12/14 10:59:23;;;;;;;98.38;47.65;;;;;;;;;;5082592;28;20016;-69
2021/12/14 11:01:50;;;;;;;104.78;48.78;;;;;;;;;;5082783;28;20028;-70
2021/12/14 11:04:19;;;;;;;102.43;47.17;;;;;;;;;;5086400;28;20027;-69
2021/12/14 11:06:47;;;;;;;94.97;46.88;;;;;;;;;;5088185;28;20027;-71
2021/12/14 11:09:42;;;;;;;98.07;44.50;;;;;;;;;;5073831;28;20024;-70
2021/12/14 11:12:10;;;;;;;94.05;46.28;;;;;;;;;;5064145;28;20051;-69
2021/12/14 11:14:37;;;;;;;96.57;46.65;;;;;;;;;;5071836;28;20392;-71
2021/12/14 11:19:53;;;;;;;102.20;47.70;;;;;;;;;;5083137;28;20078;-69
2021/12/14 11:22:22;;;;;;;92.75;45.40;;;;;;;;;;5078099;28;20099;-69
2021/12/14 11:24:55;;;;;;;98.15;47.05;;;;;;;;;;5079480;28;20024;-70
2021/12/14 11:27:39;;;;;;;107.88;47.58;;;;;;;;;;5060943;28;20020;-69
2021/12/14 11:30:11;;;;;;;98.95;47.50;;;;;;;;;;5078858;28;20052;-70
2021/12/14 11:32:41;;;;;;;101.00;49.13;;;;;;;;;;5080156;28;20024;-70
2021/12/14 11:35:37;;;;;;;105.50;47.15;;;;;;;;;;5080285;28;20044;-70
2021/12/14 11:38:11;;;;;;;101.05;47.00;;;;;;;;;;5059523;28;20059;-69
2021/12/14 11:40:37;;;;;;;109.45;49.15;;;;;;;;;;5077696;28;20070;-70
2021/12/14 11:43:11;;;;;;;104.35;48.90;;;;;;;;;;5070721;28;20039;-70
2021/12/14 11:45:37;;;;;;;114.35;51.17;;;;;;;;;;5083118;28;20043;-70
2021/12/14 11:48:04;;;;;;;120.95;51.45;;;;;;;;;;5059723;28;20389;-70
2021/12/14 11:50:37;;;;;;;108.93;49.88;;;;;;;;;;5084669;28;20460;-69
2021/12/14 11:53:06;;;;;;;106.75;49.30;;;;;;;;;;5056542;28;20025;-69
2021/12/14 11:55:44;;;;;;;101.95;49.20;;;;;;;;;;5065071;28;20032;-69
2021/12/14 11:58:10;;;;;;;109.82;49.78;;;;;;;;;;5079637;28;20055;-69
2021/12/14 12:00:38;;;;;;;119.55;50.50;;;;;;;;;;5076673;28;20036;-69
2021/12/14 12:03:23;;;;;;;103.20;50.10;;;;;;;;;;5073556;28;20024;-70
2021/12/14 12:06:02;;;;;;;105.85;49.47;;;;;;;;;;5077159;28;20023;-69
2021/12/14 12:11:16;;;;;;;107.07;51.60;;;;;;;;;;5080930;28;20044;-70
2021/12/14 12:13:43;;;;;;;100.60;48.70;;;;;;;;;;5083216;28;20028;-71
2021/12/14 12:16:18;;;;;;;114.53;51.63;;;;;;;;;;5058693;28;20448;-70
2021/12/14 12:19:03;;;;;;;106.47;49.40;;;;;;;;;;5082236;28;20028;-70
2021/12/14 12:21:30;;;;;;;112.38;48.83;;;;;;;;;;5058753;28;20056;-70
2021/12/14 12:23:57;;;;;;;110.38;50.90;;;;;;;;;;5064529;28;20034;-71
2021/12/14 12:26:28;;;;;;;111.13;50.78;;;;;;;;;;5059338;28;20067;-70
2021/12/14 12:28:58;;;;;;;118.35;52.72;;;;;;;;;;5081493;28;20056;-70
2021/12/14 12:31:24;;;;;;;118.25;52.42;;;;;;;;;;5082815;28;20082;-70
2021/12/14 12:33:55;;;;;;;116.63;52.72;;;;;;;;;;5076899;28;20437;-70
2021/12/14 12:36:21;;;;;;;117.60;53.55;;;;;;;;;;5076827;28;20024;-69
2021/12/14 12:38:55;;;;;;;109.70;53.70;;;;;;;;;;5072771;28;20075;-70
2021/12/14 12:41:27;;;;;;;111.15;50.70;;;;;;;;;;5077901;28;20052;-70
2021/12/14 12:43:56;;;;;;;117.72;52.88;;;;;;;;;;5074113;28;20086;-70
2021/12/14 12:46:28;;;;;;;113.13;51.08;;;;;;;;;;5078172;28;20494;-70
2021/12/14 12:48:54;;;;;;;119.75;54.28;;;;;;;;;;5073924;28;20064;-70
2021/12/14 12:51:42;;;;;;;109.30;50.88;;;;;;;;;;5077657;28;20430;-70
2021/12/14 12:54:43;;;;;;;111.43;49.78;;;;;;;;;;5072361;28;20044;-70
2021/12/14 12:57:10;;;;;;;;;;;;;;;;;;5004479;28;20113;-70
2021/12/14 12:59:37;;;;;;;112.78;48.70;;;;;;;;;;5064631;28;19908;-70
2021/12/14 13:02:13;;;;;;;104.55;48.50;;;;;;;;;;5078051;28;20111;-70
2021/12/14 13:04:40;;;;;;;104.05;50.03;;;;;;;;;;5052569;28;20380;-71
2021/12/14 13:07:09;;;;;;;104.57;47.75;;;;;;;;;;5072809;28;20035;-70
2021/12/14 13:09:55;;;;;;;98.40;45.67;;;;;;;;;;5074738;28;20047;-70
2021/12/14 13:12:37;;;;;;;97.70;46.60;;;;;;;;;;5078136;28;20120;-70
2021/12/14 13:15:03;;;;;;;93.82;44.35;;;;;;;;;;5082535;28;20035;-69
2021/12/14 13:17:30;;;;;;;87.20;42.90;;;;;;;;;;5077119;28;20032;-70
2021/12/14 13:20:00;;;;;;;96.47;44.15;;;;;;;;;;5064015;28;20020;-70
2021/12/14 13:22:26;;;;;;;82.07;41.78;;;;;;;;;;5081895;28;20515;-71
2021/12/14 13:24:52;;;;;;;83.60;42.60;;;;;;;;;;5083597;28;20067;-70
2021/12/14 13:27:24;;;;;;;81.43;41.90;;;;;;;;;;5067362;28;20111;-70
2021/12/14 13:29:52;;;;;;;85.70;43.05;;;;;;;;;;5084089;28;20096;-70
2021/12/14 13:32:31;;;;;;;89.07;41.70;;;;;;;;;;5086195;28;20024;-70
2021/12/14 13:34:58;;;;;;;83.72;40.88;;;;;;;;;;5084236;28;20050;-71
2021/12/14 13:37:26;;;;;;;83.10;40.25;;;;;;;;;;5084170;28;20020;-69
2021/12/14 13:39:52;;;;;;;86.03;40.97;;;;;;;;;;5078268;28;20031;-70
2021/12/14 13:42:29;;;;;;;81.63;39.95;;;;;;;;;;5082855;28;20103;-69
2021/12/14 13:44:55;;;;;;;85.70;39.92;;;;;;;;;;5082100;28;20103;-69
2021/12/14 13:47:23;;;;;;;95.78;42.58;;;;;;;;;;5062632;28;20119;-70
2021/12/14 13:49:50;;;;;;;88.95;41.65;;;;;;;;;;5081724;28;20028;-70
2021/12/14 13:52:17;;;;;;;81.80;40.97;;;;;;;;;;5065150;28;20087;-70
2021/12/14 13:55:09;;;;;;;80.22;40.42;;;;;;;;;;5084686;28;20052;-70
2021/12/14 13:57:37;;;;;;;89.13;42.67;;;;;;;;;;5065876;28;20043;-70
2021/12/14 14:00:06;;;;;;;86.80;41.83;;;;;;;;;;5066225;28;20028;-70
2021/12/14 14:02:32;;;;;;;90.03;43.63;;;;;;;;;;5083894;28;20028;-71
2021/12/14 14:04:58;;;;;;;94.65;43.90;;;;;;;;;;5048601;28;20067;-71
2021/12/14 14:07:24;;;;;;;90.95;46.72;;;;;;;;;;5084491;28;20449;-71
2021/12/14 14:09:50;;;;;;;96.95;49.80;;;;;;;;;;5085955;28;20028;-71
2021/12/14 14:12:19;;;;;;;101.53;49.13;;;;;;;;;;5087672;28;20104;-70
2021/12/14 14:14:45;;;;;;;129.82;70.68;;;;;;;;;;5087077;28;20028;-70
2021/12/14 14:17:20;;;;;;;116.88;63.83;;;;;;;;;;5067031;28;20028;-70
2021/12/14 14:19:48;;;;;;;109.88;59.33;;;;;;;;;;5086516;28;20067;-70
2021/12/14 14:22:23;;;;;;;117.22;47.67;;;;;;;;;;5083068;28;20023;-70
2021/12/14 14:25:01;;;;;;;116.45;47.97;;;;;;;;;;5082513;28;20079;-70
2021/12/14 14:27:43;;;;;;;107.15;45.88;;;;;;;;;;5080895;28;20039;-70
2021/12/14 14:30:32;;;;;;;113.28;48.33;;;;;;;;;;5082229;28;20048;-72
2021/12/14 14:33:19;;;;;;;106.90;47.60;;;;;;;;;;5050593;28;20127;-70
2021/12/14 14:36:00;;;;;;;127.88;48.75;;;;;;;;;;5058718;28;20065;-69
2021/12/14 14:38:26;;;;;;;119.05;48.13;;;;;;;;;;5043786;28;20025;-70
2021/12/14 14:41:21;;;;;;;120.00;48.38;;;;;;;;;;5042862;28;20174;-70
2021/12/14 14:44:06;;;;;;;112.97;48.42;;;;;;;;;;5040632;28;20071;-71
2021/12/14 14:46:38;;;;;;;117.05;49.15;;;;;;;;;;5039364;28;20040;-69
2021/12/14 14:49:08;;;;;;;121.68;48.35;;;;;;;;;;5037701;28;20029;-70
2021/12/14 14:51:50;;;;;;;121.35;48.42;;;;;;;;;;5055062;28;20035;-71
2021/12/14 14:54:41;;;;;;;118.05;47.92;;;;;;;;;;5045631;28;20173;-70
2021/12/14 14:57:07;;;;;;;;;;;;;;;;;;5035818;28;20033;-70
2021/12/14 14:59:34;;;;;;;115.90;48.60;;;;;;;;;;5038534;28;19952;-69
2021/12/14 15:02:00;;;;;;;122.85;51.53;;;;;;;;;;5043357;28;20014;-70
2021/12/14 15:04:26;;;;;;;121.88;51.03;;;;;;;;;;5042599;28;20036;-70
2021/12/14 15:06:53;;;;;;;123.38;51.67;;;;;;;;;;5039405;28;20540;-69